createdAt,value
2022-12-15T00:02:43.498Z,-4.12
2022-12-15T00:05:28.245Z,-4.16
2022-12-15T00:08:12.648Z,-4.15
2022-12-15T00:10:57.070Z,-4.07
2022-12-15T00:13:41.537Z,-4.01
2022-12-15T00:16:26.370Z,-4.04
2022-12-15T00:19:11.207Z,-4.30
2022-12-15T00:21:55.495Z,-5.09
2022-12-15T00:24:40.057Z,-4.87
2022-12-15T00:27:24.674Z,-4.68
2022-12-15T00:30:09.079Z,-4.20
2022-12-15T00:32:53.476Z,-4.33
2022-12-15T00:35:37.968Z,-4.22
2022-12-15T00:38:31.523Z,-4.09
2022-12-15T00:41:00.735Z,-4.23
2022-12-15T00:43:29.119Z,-4.52
2022-12-15T00:46:13.985Z,-4.41
2022-12-15T00:48:40.403Z,-4.40
2022-12-15T00:51:06.489Z,-4.28
2022-12-15T00:53:51.211Z,-4.75
2022-12-15T00:56:36.094Z,-4.11
2022-12-15T00:59:20.998Z,-4.66
2022-12-15T01:02:05.339Z,-4.18
2022-12-15T01:04:50.213Z,-4.61
2022-12-15T01:07:34.585Z,-4.73
2022-12-15T01:10:18.979Z,-4.55
2022-12-15T01:13:04.225Z,-4.51
2022-12-15T01:15:49.123Z,-5.91
2022-12-15T01:18:34.260Z,-5.06
2022-12-15T01:21:02.892Z,-4.27
2022-12-15T01:23:30.438Z,-4.38
2022-12-15T01:25:56.808Z,-4.31
2022-12-15T01:28:23.408Z,-4.35
2022-12-15T01:30:49.963Z,-4.61
2022-12-15T01:33:16.947Z,-4.45
2022-12-15T01:35:43.002Z,-4.91
2022-12-15T01:38:09.220Z,-5.36
2022-12-15T01:40:44.590Z,-4.89
2022-12-15T01:43:21.640Z,-4.83
2022-12-15T01:45:53.018Z,-4.77
2022-12-15T01:48:26.452Z,-5.47
2022-12-15T01:50:58.893Z,-4.65
2022-12-15T01:53:25.439Z,-4.49
2022-12-15T01:55:51.505Z,-4.62
2022-12-15T01:58:19.117Z,-9.14
2022-12-15T02:00:45.235Z,-4.65
2022-12-15T02:03:11.945Z,-6.40
2022-12-15T02:05:39.373Z,-4.68
2022-12-15T02:08:05.786Z,-6.13
2022-12-15T02:10:45.291Z,-4.51
2022-12-15T02:13:19.493Z,-4.58
2022-12-15T02:15:50.009Z,-4.57
2022-12-15T02:18:30.956Z,-4.82
2022-12-15T02:21:15.772Z,-4.84
2022-12-15T02:24:15.227Z,-4.68
2022-12-15T02:27:08.553Z,-5.51
2022-12-15T02:30:13.200Z,-4.81
2022-12-15T02:33:03.338Z,-4.84
2022-12-15T02:35:37.012Z,-4.92
2022-12-15T02:38:03.491Z,-5.32
2022-12-15T02:40:29.556Z,-4.98
2022-12-15T02:42:57.404Z,-4.89
2022-12-15T02:45:34.452Z,-4.76
2022-12-15T02:48:00.498Z,-4.80
2022-12-15T02:50:45.415Z,-4.80
2022-12-15T02:53:35.857Z,-4.84
2022-12-15T02:56:35.023Z,-4.99
2022-12-15T02:59:10.639Z,-5.11
2022-12-15T03:01:41.326Z,-6.21
2022-12-15T03:04:08.822Z,-5.34
2022-12-15T03:06:34.935Z,-5.25
2022-12-15T03:09:01.098Z,-6.70
2022-12-15T03:11:27.789Z,-5.91
2022-12-15T03:13:53.917Z,-5.29
2022-12-15T03:16:20.511Z,-5.51
2022-12-15T03:18:46.686Z,-5.54
2022-12-15T03:21:12.764Z,-5.28
2022-12-15T03:23:38.831Z,-5.24
2022-12-15T03:26:05.900Z,-5.93
2022-12-15T03:28:32.993Z,-5.40
2022-12-15T03:30:59.023Z,-5.67
2022-12-15T03:33:25.098Z,-5.47
2022-12-15T03:35:51.131Z,-5.32
2022-12-15T03:38:17.783Z,-5.18
2022-12-15T03:40:43.904Z,-5.16
2022-12-15T03:43:09.947Z,-4.97
2022-12-15T03:45:36.091Z,-5.00
2022-12-15T03:48:02.150Z,-5.07
2022-12-15T03:50:28.902Z,-5.39
2022-12-15T03:52:58.548Z,-5.23
2022-12-15T03:55:25.265Z,-5.15
2022-12-15T03:57:51.693Z,-5.57
2022-12-15T04:00:19.378Z,-5.95
2022-12-15T04:02:46.437Z,-5.33
2022-12-15T04:05:22.691Z,-5.52
2022-12-15T04:07:48.844Z,-6.22
2022-12-15T04:10:15.081Z,-6.28
2022-12-15T04:12:41.201Z,-7.92
2022-12-15T04:15:08.703Z,-5.80
2022-12-15T04:17:34.991Z,-6.18
2022-12-15T04:20:10.520Z,-6.32
2022-12-15T04:22:44.409Z,-5.73
2022-12-15T04:25:33.171Z,-5.81
2022-12-15T04:28:18.053Z,-5.61
2022-12-15T04:31:06.527Z,-6.13
2022-12-15T04:33:51.828Z,-7.94
2022-12-15T04:36:36.711Z,-5.58
2022-12-15T04:39:22.916Z,-6.27
2022-12-15T04:42:07.945Z,-6.01
2022-12-15T04:44:52.860Z,-5.68
2022-12-15T04:47:37.449Z,-5.73
2022-12-15T04:50:22.359Z,-7.62
2022-12-15T04:53:06.765Z,-5.53
2022-12-15T04:55:55.085Z,-5.59
2022-12-15T04:58:40.064Z,-5.86
2022-12-15T05:01:25.061Z,-6.15
2022-12-15T05:04:09.852Z,-6.02
2022-12-15T05:06:54.674Z,-6.97
2022-12-15T05:09:39.117Z,-5.71
2022-12-15T05:12:23.968Z,-6.12
2022-12-15T05:15:08.344Z,-6.03
2022-12-15T05:17:52.860Z,-5.84
2022-12-15T05:20:37.093Z,-5.71
2022-12-15T05:23:21.499Z,-5.96
2022-12-15T05:26:06.770Z,-6.18
2022-12-15T05:28:51.288Z,-5.92
2022-12-15T05:31:35.653Z,-6.05
2022-12-15T05:34:05.449Z,-5.99
2022-12-15T05:36:32.509Z,-6.38
2022-12-15T05:38:58.578Z,-6.49
2022-12-15T05:41:24.660Z,-5.90
2022-12-15T05:43:50.698Z,-5.96
2022-12-15T05:46:16.796Z,-5.92
2022-12-15T05:48:42.930Z,-5.85
2022-12-15T05:51:10.685Z,-6.69
2022-12-15T05:53:38.385Z,-6.20
2022-12-15T05:56:06.923Z,-6.01
2022-12-15T05:58:32.973Z,-5.74
2022-12-15T06:01:07.479Z,-6.22
2022-12-15T06:03:33.984Z,-5.39
2022-12-15T06:06:01.842Z,-6.80
2022-12-15T06:08:33.208Z,-5.21
2022-12-15T06:10:59.700Z,-5.67
2022-12-15T06:13:26.584Z,-5.24
2022-12-15T06:16:04.594Z,-5.38
2022-12-15T06:18:35.958Z,-5.29
2022-12-15T06:21:04.986Z,-5.28
2022-12-15T06:23:34.422Z,-6.08
2022-12-15T06:26:09.309Z,-5.36
2022-12-15T06:28:35.420Z,-5.21
2022-12-15T06:31:03.558Z,-5.06
2022-12-15T06:33:30.474Z,-6.84
2022-12-15T06:35:57.209Z,-5.05
2022-12-15T06:38:23.239Z,-4.98
2022-12-15T06:40:56.178Z,-5.12
2022-12-15T06:43:22.240Z,-5.47
2022-12-15T06:45:49.771Z,-5.20
2022-12-15T06:48:16.213Z,-5.17
2022-12-15T06:50:42.245Z,-4.97
2022-12-15T06:53:08.278Z,-4.87
2022-12-15T06:55:34.307Z,-5.07
2022-12-15T06:58:00.397Z,-5.57
2022-12-15T07:00:27.291Z,-4.80
2022-12-15T07:02:53.578Z,-4.86
2022-12-15T07:05:20.877Z,-5.05
2022-12-15T07:07:47.546Z,-4.71
2022-12-15T07:10:13.817Z,-4.77
2022-12-15T07:12:39.963Z,-4.84
2022-12-15T07:15:07.424Z,-4.52
2022-12-15T07:17:35.208Z,-4.57
2022-12-15T07:20:01.303Z,-4.57
2022-12-15T07:22:28.088Z,-4.41
2022-12-15T07:24:54.171Z,-4.53
2022-12-15T07:27:20.225Z,-4.40
2022-12-15T07:29:46.264Z,-4.36
2022-12-15T07:32:12.319Z,-5.17
2022-12-15T07:34:38.376Z,-4.45
2022-12-15T07:37:04.431Z,-4.28
2022-12-15T07:39:30.496Z,-4.62
2022-12-15T07:41:56.773Z,-4.59
2022-12-15T07:44:23.188Z,-4.37
2022-12-15T07:46:49.481Z,-4.45
2022-12-15T07:49:16.641Z,-4.66
2022-12-15T07:51:42.888Z,-4.63
2022-12-15T07:54:12.927Z,-4.20
2022-12-15T07:56:39.573Z,-4.39
2022-12-15T07:59:06.528Z,-4.31
2022-12-15T08:01:34.452Z,-4.06
2022-12-15T08:04:00.955Z,-4.16
2022-12-15T08:06:27.044Z,-4.15
2022-12-15T08:08:53.097Z,-4.65
2022-12-15T08:11:20.949Z,-4.22
2022-12-15T08:14:05.079Z,-4.27
2022-12-15T08:16:33.772Z,-4.27
2022-12-15T08:18:59.851Z,-4.24
2022-12-15T08:21:25.947Z,-4.41
2022-12-15T08:23:52.056Z,-5.03
2022-12-15T08:26:18.684Z,-4.50
2022-12-15T08:28:45.221Z,-5.60
2022-12-15T08:31:14.113Z,-4.32
2022-12-15T08:33:40.376Z,-4.84
2022-12-15T08:36:09.522Z,-4.95
2022-12-15T08:38:37.887Z,-4.67
2022-12-15T08:41:07.978Z,-4.52
2022-12-15T08:43:34.362Z,-4.33
2022-12-15T08:46:00.949Z,-4.58
2022-12-15T08:48:27.008Z,-4.48
2022-12-15T08:50:54.869Z,-4.42
2022-12-15T08:53:41.352Z,-4.17
2022-12-15T08:56:09.687Z,-3.97
2022-12-15T08:58:37.780Z,-5.47
2022-12-15T09:01:06.859Z,-4.34
2022-12-15T09:03:34.881Z,-4.11
2022-12-15T09:06:06.641Z,-4.00
2022-12-15T09:08:33.640Z,-4.04
2022-12-15T09:11:00.774Z,-4.00
2022-12-15T09:13:26.945Z,-5.28
2022-12-15T09:16:09.373Z,-4.61
2022-12-15T09:18:36.848Z,-4.11
2022-12-15T09:21:05.103Z,-4.40
2022-12-15T09:23:31.475Z,-4.27
2022-12-15T09:26:05.572Z,-4.11
2022-12-15T09:28:31.744Z,-3.96
2022-12-15T09:31:07.959Z,-4.30
2022-12-15T09:33:34.527Z,-4.10
2022-12-15T09:36:01.345Z,-4.06
2022-12-15T09:38:27.523Z,-4.47
2022-12-15T09:40:53.786Z,-4.32
2022-12-15T09:43:44.592Z,-4.03
2022-12-15T09:46:27.701Z,-9.62
2022-12-15T09:48:55.316Z,-4.33
2022-12-15T09:51:29.848Z,-4.00
2022-12-15T09:53:56.750Z,-4.54
2022-12-15T09:56:32.568Z,-4.35
2022-12-15T09:59:13.020Z,-3.80
2022-12-15T10:01:57.528Z,-3.96
2022-12-15T10:04:33.336Z,-4.21
2022-12-15T10:07:08.260Z,-3.72
2022-12-15T10:09:36.445Z,-4.41
2022-12-15T10:12:08.784Z,-3.82
2022-12-15T10:14:41.662Z,-3.53
2022-12-15T10:17:27.000Z,-4.88
2022-12-15T10:20:19.482Z,-3.62
2022-12-15T10:22:45.664Z,-3.52
2022-12-15T10:25:30.146Z,-3.42
2022-12-15T10:28:14.896Z,-3.68
2022-12-15T10:30:58.220Z,-3.80
2022-12-15T10:33:26.327Z,-3.54
2022-12-15T10:35:53.406Z,-3.46
2022-12-15T10:38:31.827Z,-3.36
2022-12-15T10:41:09.295Z,-3.27
2022-12-15T10:43:41.145Z,-5.17
2022-12-15T10:46:10.238Z,-3.84
2022-12-15T10:48:36.499Z,-6.52
2022-12-15T10:51:39.608Z,-3.45
2022-12-15T10:54:14.835Z,-3.55
2022-12-15T10:56:57.324Z,-3.53
2022-12-15T10:59:28.005Z,-8.84
2022-12-15T11:01:54.365Z,-3.84
2022-12-15T11:04:29.056Z,-3.64
2022-12-15T11:06:56.852Z,-2.97
2022-12-15T11:09:25.957Z,-2.87
2022-12-15T11:12:12.090Z,-2.91
2022-12-15T11:14:49.207Z,-3.44
2022-12-15T11:17:22.141Z,-3.32
2022-12-15T11:20:04.100Z,-3.14
2022-12-15T11:22:51.778Z,-3.06
2022-12-15T11:25:34.638Z,-3.29
2022-12-15T11:28:06.132Z,-2.98
2022-12-15T11:30:48.932Z,-3.12
2022-12-15T11:33:16.328Z,-3.08
2022-12-15T11:35:45.155Z,-3.73
2022-12-15T11:38:23.315Z,-3.27
2022-12-15T11:40:50.568Z,-3.02
2022-12-15T11:43:22.837Z,-2.71
2022-12-15T11:46:07.895Z,-2.71
2022-12-15T11:48:52.219Z,-2.64
2022-12-15T11:51:40.458Z,-2.55
2022-12-15T11:54:31.541Z,-2.68
2022-12-15T11:56:57.528Z,-2.63
2022-12-15T11:59:44.999Z,-2.57
2022-12-15T12:02:24.260Z,-2.50
2022-12-15T12:04:56.463Z,-2.56
2022-12-15T12:07:22.560Z,-2.84
2022-12-15T12:10:11.506Z,-4.54
2022-12-15T12:12:43.343Z,-2.98
2022-12-15T12:15:12.344Z,-2.56
2022-12-15T12:17:42.683Z,-2.99
2022-12-15T12:20:20.342Z,-2.78
2022-12-15T12:23:14.274Z,-2.61
2022-12-15T12:25:45.351Z,-2.72
2022-12-15T12:28:23.324Z,-2.70
2022-12-15T12:30:50.688Z,-2.69
2022-12-15T12:33:38.621Z,-2.63
2022-12-15T12:36:12.936Z,-2.55
2022-12-15T12:38:45.351Z,-2.34
2022-12-15T12:41:25.776Z,-2.59
2022-12-15T12:43:57.466Z,-2.56
2022-12-15T12:46:39.723Z,-2.49
2022-12-15T12:49:11.071Z,-3.07
2022-12-15T12:51:41.184Z,-2.59
2022-12-15T12:54:36.379Z,-2.91
2022-12-15T12:57:11.481Z,-2.96
2022-12-15T12:59:40.308Z,-2.80
2022-12-15T13:02:23.951Z,-2.52
2022-12-15T13:05:20.716Z,-2.59
2022-12-15T13:08:04.980Z,-2.51
2022-12-15T13:10:36.501Z,-2.51
2022-12-15T13:13:17.877Z,-2.36
2022-12-15T13:15:49.161Z,-2.50
2022-12-15T13:18:20.342Z,-2.16
2022-12-15T13:20:48.970Z,-2.54
2022-12-15T13:23:22.906Z,-2.36
2022-12-15T13:25:55.517Z,-1.79
2022-12-15T13:28:34.148Z,-2.18
2022-12-15T13:31:15.936Z,-1.57
2022-12-15T13:33:54.295Z,-1.78
2022-12-15T13:36:38.704Z,-1.96
2022-12-15T13:39:11.553Z,-1.78
2022-12-15T13:41:38.104Z,-1.49
2022-12-15T13:44:15.191Z,-4.33
2022-12-15T13:46:44.407Z,-2.70
2022-12-15T13:49:16.674Z,-2.79
2022-12-15T13:51:43.894Z,-2.17
2022-12-15T13:54:16.497Z,-2.19
2022-12-15T13:56:45.771Z,-2.20
2022-12-15T13:59:22.511Z,-2.07
2022-12-15T14:01:52.945Z,-2.04
2022-12-15T14:04:19.851Z,-1.82
2022-12-15T14:07:00.539Z,-1.67
2022-12-15T14:09:34.858Z,-1.79
2022-12-15T14:12:01.879Z,-1.90
2022-12-15T14:14:31.032Z,-1.77
2022-12-15T14:17:00.271Z,-3.64
2022-12-15T14:19:38.459Z,-1.92
2022-12-15T14:22:27.636Z,-1.89
2022-12-15T14:25:12.653Z,-2.18
2022-12-15T14:27:39.080Z,-3.20
2022-12-15T14:30:28.782Z,-2.30
2022-12-15T14:33:00.822Z,-2.25
2022-12-15T14:35:36.577Z,-2.19
2022-12-15T14:38:06.335Z,-2.33
2022-12-15T14:40:35.688Z,-2.27
2022-12-15T14:43:02.220Z,-2.21
2022-12-15T14:45:31.208Z,-2.15
2022-12-15T14:48:39.109Z,-2.16
2022-12-15T14:50:47.232Z,-4.12
2022-12-15T14:53:16.297Z,-2.29
2022-12-15T14:55:42.536Z,-2.69
2022-12-15T14:58:47.885Z,-2.25
2022-12-15T15:01:27.404Z,-2.22
2022-12-15T15:04:22.409Z,-2.25
2022-12-15T15:06:53.802Z,-2.28
2022-12-15T15:09:30.641Z,-2.56
2022-12-15T15:12:07.280Z,-2.63
2022-12-15T15:14:40.508Z,-2.58
2022-12-15T15:17:12.865Z,-2.61
2022-12-15T15:19:54.345Z,-2.51
2022-12-15T15:22:26.191Z,-2.49
2022-12-15T15:24:52.492Z,-2.55
2022-12-15T15:27:30.665Z,-2.54
2022-12-15T15:30:13.873Z,-3.03
2022-12-15T15:33:01.262Z,-2.56
2022-12-15T15:35:32.484Z,-2.55
2022-12-15T15:38:06.785Z,-3.08
2022-12-15T15:40:32.846Z,-2.59
2022-12-15T15:42:59.219Z,-3.02
2022-12-15T15:45:25.363Z,-3.15
2022-12-15T15:47:52.797Z,-2.64
2022-12-15T15:50:27.880Z,-2.65
2022-12-15T15:52:54.017Z,-2.70
2022-12-15T15:55:26.351Z,-2.98
2022-12-15T15:57:52.508Z,-2.78
2022-12-15T16:00:21.352Z,-2.69
2022-12-15T16:02:47.668Z,-2.77
2022-12-15T16:05:14.209Z,-2.83
2022-12-15T16:07:41.446Z,-2.78
2022-12-15T16:10:15.427Z,-3.09
2022-12-15T16:12:52.265Z,-2.90
2022-12-15T16:15:23.436Z,-2.81
2022-12-15T16:17:49.547Z,-2.89
2022-12-15T16:20:17.208Z,-2.88
2022-12-15T16:22:48.287Z,-2.90
2022-12-15T16:25:17.971Z,-3.21
2022-12-15T16:27:44.233Z,-2.90
2022-12-15T16:30:15.690Z,-3.20
2022-12-15T16:32:42.105Z,-3.39
2022-12-15T16:35:08.290Z,-3.37
2022-12-15T16:37:39.433Z,-3.43
2022-12-15T16:40:16.945Z,-5.29
2022-12-15T16:42:46.630Z,-3.36
2022-12-15T16:45:17.437Z,-3.36
2022-12-15T16:47:47.004Z,-3.72
2022-12-15T16:50:22.136Z,-3.24
2022-12-15T16:52:50.075Z,-3.28
2022-12-15T16:55:18.968Z,-3.28
2022-12-15T16:57:45.954Z,-3.22
2022-12-15T17:00:17.846Z,-3.18
2022-12-15T17:02:44.228Z,-3.44
2022-12-15T17:05:10.648Z,-3.57
2022-12-15T17:07:37.903Z,-3.96
2022-12-15T17:10:04.848Z,-4.29
2022-12-15T17:12:31.197Z,-3.61
2022-12-15T17:14:57.717Z,-3.75
2022-12-15T17:17:24.300Z,-3.62
2022-12-15T17:20:27.988Z,-3.83
2022-12-15T17:22:37.334Z,-3.60
2022-12-15T17:25:03.850Z,-3.68
2022-12-15T17:27:30.839Z,-3.98
2022-12-15T17:29:58.288Z,-3.53
2022-12-15T17:32:24.311Z,-3.94
2022-12-15T17:34:50.950Z,-3.64
2022-12-15T17:37:17.380Z,-3.54
2022-12-15T17:39:49.942Z,-3.47
2022-12-15T17:42:18.847Z,-4.84
2022-12-15T17:44:46.963Z,-3.48
2022-12-15T17:47:13.958Z,-3.47
2022-12-15T17:49:40.183Z,-3.60
2022-12-15T17:52:28.944Z,-3.73
2022-12-15T17:54:55.783Z,-4.31
2022-12-15T17:57:21.892Z,-3.87
2022-12-15T17:59:48.009Z,-3.63
2022-12-15T18:02:14.526Z,-3.67
2022-12-15T18:04:41.340Z,-3.66
2022-12-15T18:07:19.248Z,-3.58
2022-12-15T18:09:45.599Z,-3.70
2022-12-15T18:12:19.513Z,-3.66
2022-12-15T18:14:45.625Z,-3.66
2022-12-15T18:17:11.694Z,-3.62
2022-12-15T18:19:37.707Z,-3.58
2022-12-15T18:22:03.776Z,-3.82
2022-12-15T18:24:29.839Z,-3.73
2022-12-15T18:26:56.036Z,-3.78
2022-12-15T18:29:22.169Z,-4.85
2022-12-15T18:31:48.934Z,-3.69
2022-12-15T18:34:20.278Z,-3.62
2022-12-15T18:36:46.407Z,-3.64
2022-12-15T18:39:23.123Z,-3.66
2022-12-15T18:41:49.743Z,-3.73
2022-12-15T18:44:26.531Z,-3.96
2022-12-15T18:46:52.901Z,-4.58
2022-12-15T18:49:22.356Z,-4.10
2022-12-15T18:51:48.675Z,-4.02
2022-12-15T18:54:16.780Z,-3.92
2022-12-15T18:56:43.024Z,-4.27
2022-12-15T18:59:16.711Z,-4.44
2022-12-15T19:01:44.710Z,-4.69
2022-12-15T19:04:11.163Z,-4.24
2022-12-15T19:06:37.558Z,-4.04
2022-12-15T19:09:16.016Z,-4.05
2022-12-15T19:12:03.709Z,-3.99
2022-12-15T19:14:42.143Z,-4.07
2022-12-15T19:17:34.559Z,-4.95
2022-12-15T19:20:19.952Z,-4.19
2022-12-15T19:22:47.216Z,-4.05
2022-12-15T19:25:25.803Z,-4.09
2022-12-15T19:27:57.778Z,-4.19
2022-12-15T19:30:26.368Z,-4.15
2022-12-15T19:32:53.208Z,-4.21
2022-12-15T19:35:21.120Z,-4.23
2022-12-15T19:37:48.975Z,-4.27
2022-12-15T19:40:24.445Z,-4.37
2022-12-15T19:42:52.188Z,-4.42
2022-12-15T19:45:23.765Z,-4.96
2022-12-15T19:47:50.142Z,-4.48
2022-12-15T19:50:18.836Z,-4.62
2022-12-15T19:52:47.608Z,-4.44
2022-12-15T19:55:16.151Z,-4.77
2022-12-15T19:57:42.972Z,-5.16
2022-12-15T20:00:26.663Z,-4.64
2022-12-15T20:02:53.999Z,-4.42
2022-12-15T20:05:21.648Z,-4.48
2022-12-15T20:07:48.188Z,-4.92
2022-12-15T20:10:29.341Z,-5.18
2022-12-15T20:12:58.881Z,-4.78
2022-12-15T20:15:25.603Z,-5.09
2022-12-15T20:17:58.062Z,-5.99
2022-12-15T20:20:26.330Z,-4.66
2022-12-15T20:22:54.247Z,-4.76
2022-12-15T20:25:24.669Z,-4.60
2022-12-15T20:27:50.900Z,-4.94
2022-12-15T20:30:22.348Z,-4.62
2022-12-15T20:32:48.578Z,-4.57
2022-12-15T20:35:16.246Z,-5.01
2022-12-15T20:37:43.192Z,-4.59
2022-12-15T20:40:23.111Z,-5.78
2022-12-15T20:42:50.603Z,-5.97
2022-12-15T20:45:18.870Z,-4.71
2022-12-15T20:47:46.007Z,-4.52
2022-12-15T20:50:25.066Z,-4.56
2022-12-15T20:52:51.351Z,-4.77
2022-12-15T20:55:18.221Z,-4.71
2022-12-15T20:57:44.280Z,-4.89
2022-12-15T21:00:12.496Z,-5.06
2022-12-15T21:02:38.844Z,-5.11
2022-12-15T21:05:05.644Z,-4.75
2022-12-15T21:07:31.778Z,-4.65
2022-12-15T21:09:57.803Z,-4.61
2022-12-15T21:12:26.788Z,-4.98
2022-12-15T21:14:53.861Z,-4.74
2022-12-15T21:17:21.675Z,-5.64
2022-12-15T21:19:48.370Z,-4.72
2022-12-15T21:22:22.789Z,-4.99
2022-12-15T21:24:51.326Z,-4.86
2022-12-15T21:27:18.231Z,-4.76
2022-12-15T21:29:52.034Z,-4.79
2022-12-15T21:32:19.395Z,-4.80
2022-12-15T21:34:45.455Z,-4.98
2022-12-15T21:37:31.715Z,-4.87
2022-12-15T21:39:58.773Z,-5.02
2022-12-15T21:42:25.551Z,-5.54
2022-12-15T21:44:51.654Z,-4.90
2022-12-15T21:47:23.835Z,-4.92
2022-12-15T21:49:49.990Z,-5.11
2022-12-15T21:52:16.782Z,-4.96
2022-12-15T21:54:42.903Z,-4.89
2022-12-15T21:57:11.673Z,-5.01
2022-12-15T21:59:37.984Z,-4.89
2022-12-15T22:02:24.744Z,-4.87
2022-12-15T22:04:51.721Z,-4.85
2022-12-15T22:07:17.933Z,-5.48
2022-12-15T22:09:44.277Z,-5.01
2022-12-15T22:12:19.233Z,-4.93
2022-12-15T22:14:45.630Z,-4.96
2022-12-15T22:17:19.634Z,-5.00
2022-12-15T22:19:45.717Z,-5.08
2022-12-15T22:22:13.124Z,-5.03
2022-12-15T22:24:39.534Z,-4.92
2022-12-15T22:27:19.484Z,-5.06
2022-12-15T22:29:46.184Z,-5.41
2022-12-15T22:32:13.802Z,-6.97
2022-12-15T22:34:40.175Z,-5.15
2022-12-15T22:37:06.307Z,-5.59
2022-12-15T22:39:33.074Z,-6.31
2022-12-15T22:41:59.871Z,-8.30
2022-12-15T22:44:29.007Z,-6.42
2022-12-15T22:46:56.241Z,-5.61
2022-12-15T22:49:25.215Z,-5.58
2022-12-15T22:51:51.301Z,-5.93
2022-12-15T22:54:25.589Z,-5.26
2022-12-15T22:56:55.496Z,-5.23
2022-12-15T22:59:53.936Z,-5.22
2022-12-15T23:02:20.728Z,-5.32
2022-12-15T23:04:46.813Z,-5.21
2022-12-15T23:07:13.079Z,-5.33
2022-12-15T23:09:39.116Z,-5.40
2022-12-15T23:12:05.340Z,-5.88
2022-12-15T23:14:49.874Z,-6.34
2022-12-15T23:17:16.430Z,-5.71
2022-12-15T23:19:43.756Z,-7.86
2022-12-15T23:22:10.014Z,-5.49
2022-12-15T23:24:36.060Z,-5.77
2022-12-15T23:27:02.281Z,-5.25
2022-12-15T23:29:28.406Z,-5.34
2022-12-15T23:31:54.652Z,-5.31
2022-12-15T23:34:20.696Z,-5.73
2022-12-15T23:36:46.796Z,-5.26
2022-12-15T23:39:12.876Z,-5.33
2022-12-15T23:41:39.246Z,-6.45
2022-12-15T23:44:05.351Z,-5.56
2022-12-15T23:46:31.502Z,-5.30
2022-12-15T23:48:58.857Z,-5.22
2022-12-15T23:51:24.891Z,-5.48
2022-12-15T23:53:50.985Z,-5.43
2022-12-15T23:56:22.725Z,-5.62
2022-12-15T23:58:55.147Z,-5.35
